sensor_id;sensor_type;location;lat;lon;timestamp;temperature;humidity
43414;DHT22;29013;49.676;8.606;2022-07-17T00:05:20;17.2;68.1
43414;DHT22;29013;49.676;8.606;2022-07-17T00:10:46;17.2;68.7
43414;DHT22;29013;49.676;8.606;2022-07-17T00:16:13;17.3;68.5
43414;DHT22;29013;49.676;8.606;2022-07-17T00:21:41;17.2;68.4
43414;DHT22;29013;49.676;8.606;2022-07-17T00:27:06;17.1;68.3
43414;DHT22;29013;49.676;8.606;2022-07-17T00:32:32;17.1;68.4
43414;DHT22;29013;49.676;8.606;2022-07-17T00:37:59;17.0;69.6
43414;DHT22;29013;49.676;8.606;2022-07-17T00:43:28;16.9;69.5
43414;DHT22;29013;49.676;8.606;2022-07-17T00:48:49;16.9;69.5
43414;DHT22;29013;49.676;8.606;2022-07-17T00:54:17;16.6;70.5
43414;DHT22;29013;49.676;8.606;2022-07-17T00:59:39;16.6;70.2
43414;DHT22;29013;49.676;8.606;2022-07-17T01:05:05;16.5;71.5
43414;DHT22;29013;49.676;8.606;2022-07-17T01:10:31;16.3;71.6
43414;DHT22;29013;49.676;8.606;2022-07-17T01:15:58;16.4;70.7
43414;DHT22;29013;49.676;8.606;2022-07-17T01:21:25;16.3;72.3
43414;DHT22;29013;49.676;8.606;2022-07-17T01:26:52;16.2;71.6
43414;DHT22;29013;49.676;8.606;2022-07-17T01:32:18;16.1;72.0
43414;DHT22;29013;49.676;8.606;2022-07-17T01:37:44;16.0;72.2
43414;DHT22;29013;49.676;8.606;2022-07-17T01:43:11;16.0;72.1
43414;DHT22;29013;49.676;8.606;2022-07-17T01:48:40;15.9;72.0
43414;DHT22;29013;49.676;8.606;2022-07-17T01:54:07;15.9;71.6
43414;DHT22;29013;49.676;8.606;2022-07-17T01:59:35;15.9;71.8
43414;DHT22;29013;49.676;8.606;2022-07-17T02:05:01;15.8;72.0
43414;DHT22;29013;49.676;8.606;2022-07-17T02:10:26;15.7;71.9
43414;DHT22;29013;49.676;8.606;2022-07-17T02:15:52;15.7;72.3
43414;DHT22;29013;49.676;8.606;2022-07-17T02:21:19;15.6;73.0
43414;DHT22;29013;49.676;8.606;2022-07-17T02:26:45;15.5;72.8
43414;DHT22;29013;49.676;8.606;2022-07-17T02:32:07;15.5;73.7
43414;DHT22;29013;49.676;8.606;2022-07-17T02:37:31;15.4;73.3
43414;DHT22;29013;49.676;8.606;2022-07-17T02:42:53;15.3;73.9
43414;DHT22;29013;49.676;8.606;2022-07-17T02:48:19;15.3;74.2
43414;DHT22;29013;49.676;8.606;2022-07-17T02:53:45;15.2;74.3
43414;DHT22;29013;49.676;8.606;2022-07-17T02:59:13;15.1;74.5
43414;DHT22;29013;49.676;8.606;2022-07-17T03:04:34;15.0;75.1
43414;DHT22;29013;49.676;8.606;2022-07-17T03:09:58;15.0;75.2
43414;DHT22;29013;49.676;8.606;2022-07-17T03:15:25;14.9;75.5
43414;DHT22;29013;49.676;8.606;2022-07-17T03:20:50;14.9;75.6
43414;DHT22;29013;49.676;8.606;2022-07-17T03:26:18;14.8;76.6
43414;DHT22;29013;49.676;8.606;2022-07-17T03:31:39;14.7;76.8
43414;DHT22;29013;49.676;8.606;2022-07-17T03:37:07;14.7;77.0
43414;DHT22;29013;49.676;8.606;2022-07-17T03:42:34;14.6;76.9
43414;DHT22;29013;49.676;8.606;2022-07-17T03:47:57;14.6;76.6
43414;DHT22;29013;49.676;8.606;2022-07-17T03:53:24;14.6;76.7
43414;DHT22;29013;49.676;8.606;2022-07-17T03:58:50;14.6;76.5
43414;DHT22;29013;49.676;8.606;2022-07-17T04:04:17;14.6;76.7
43414;DHT22;29013;49.676;8.606;2022-07-17T04:09:42;14.6;76.7
43414;DHT22;29013;49.676;8.606;2022-07-17T04:15:12;14.6;77.2
43414;DHT22;29013;49.676;8.606;2022-07-17T04:20:39;14.6;78.4
43414;DHT22;29013;49.676;8.606;2022-07-17T04:26:08;14.5;78.3
43414;DHT22;29013;49.676;8.606;2022-07-17T04:31:31;14.5;78.9
43414;DHT22;29013;49.676;8.606;2022-07-17T04:36:55;14.5;79.1
43414;DHT22;29013;49.676;8.606;2022-07-17T04:42:20;14.6;79.1
43414;DHT22;29013;49.676;8.606;2022-07-17T04:47:41;14.5;80.4
43414;DHT22;29013;49.676;8.606;2022-07-17T04:53:08;14.6;81.5
43414;DHT22;29013;49.676;8.606;2022-07-17T04:58:34;14.6;81.9
43414;DHT22;29013;49.676;8.606;2022-07-17T05:04:00;14.6;82.8
43414;DHT22;29013;49.676;8.606;2022-07-17T05:09:26;14.8;82.4
43414;DHT22;29013;49.676;8.606;2022-07-17T05:14:53;14.9;82.4
43414;DHT22;29013;49.676;8.606;2022-07-17T05:20:18;15.1;81.4
43414;DHT22;29013;49.676;8.606;2022-07-17T05:25:40;15.2;81.9
43414;DHT22;29013;49.676;8.606;2022-07-17T05:31:01;15.3;81.4
43414;DHT22;29013;49.676;8.606;2022-07-17T05:36:27;15.5;82.1
43414;DHT22;29013;49.676;8.606;2022-07-17T05:41:55;15.6;81.5
43414;DHT22;29013;49.676;8.606;2022-07-17T05:47:22;15.8;81.2
43414;DHT22;29013;49.676;8.606;2022-07-17T05:52:49;16.1;81.2
43414;DHT22;29013;49.676;8.606;2022-07-17T05:58:12;16.5;80.8
43414;DHT22;29013;49.676;8.606;2022-07-17T06:03:33;17.1;79.5
43414;DHT22;29013;49.676;8.606;2022-07-17T06:08:55;17.8;77.3
43414;DHT22;29013;49.676;8.606;2022-07-17T06:14:17;18.3;76.3
43414;DHT22;29013;49.676;8.606;2022-07-17T06:19:41;18.9;76.0
43414;DHT22;29013;49.676;8.606;2022-07-17T06:25:11;19.4;74.8
43414;DHT22;29013;49.676;8.606;2022-07-17T06:30:34;19.9;74.0
43414;DHT22;29013;49.676;8.606;2022-07-17T06:36:00;20.4;69.8
43414;DHT22;29013;49.676;8.606;2022-07-17T06:41:29;20.9;69.5
43414;DHT22;29013;49.676;8.606;2022-07-17T06:46:51;21.5;67.3
43414;DHT22;29013;49.676;8.606;2022-07-17T06:52:14;22.0;65.1
43414;DHT22;29013;49.676;8.606;2022-07-17T06:57:40;22.4;63.3
43414;DHT22;29013;49.676;8.606;2022-07-17T07:03:07;22.8;62.2
43414;DHT22;29013;49.676;8.606;2022-07-17T07:08:34;23.2;60.8
43414;DHT22;29013;49.676;8.606;2022-07-17T07:14:01;23.7;60.0
43414;DHT22;29013;49.676;8.606;2022-07-17T07:19:30;24.1;60.6
43414;DHT22;29013;49.676;8.606;2022-07-17T07:24:57;24.7;57.4
43414;DHT22;29013;49.676;8.606;2022-07-17T07:30:24;25.2;56.1
43414;DHT22;29013;49.676;8.606;2022-07-17T07:35:49;25.7;53.6
43414;DHT22;29013;49.676;8.606;2022-07-17T07:41:18;26.1;54.6
43414;DHT22;29013;49.676;8.606;2022-07-17T07:46:44;26.7;52.5
43414;DHT22;29013;49.676;8.606;2022-07-17T07:52:09;26.9;51.9
43414;DHT22;29013;49.676;8.606;2022-07-17T07:57:36;27.4;51.8
43414;DHT22;29013;49.676;8.606;2022-07-17T08:03:04;27.6;48.7
43414;DHT22;29013;49.676;8.606;2022-07-17T08:08:31;27.7;48.8
43414;DHT22;29013;49.676;8.606;2022-07-17T08:13:59;28.1;47.5
43414;DHT22;29013;49.676;8.606;2022-07-17T08:19:27;28.4;48.9
43414;DHT22;29013;49.676;8.606;2022-07-17T08:24:54;28.7;47.2
43414;DHT22;29013;49.676;8.606;2022-07-17T08:30:25;29.0;44.2
43414;DHT22;29013;49.676;8.606;2022-07-17T08:35:49;28.5;41.7
43414;DHT22;29013;49.676;8.606;2022-07-17T08:41:17;28.6;45.0
43414;DHT22;29013;49.676;8.606;2022-07-17T08:46:40;29.2;43.7
43414;DHT22;29013;49.676;8.606;2022-07-17T08:52:06;29.3;42.4
43414;DHT22;29013;49.676;8.606;2022-07-17T08:57:35;29.6;44.9
43414;DHT22;29013;49.676;8.606;2022-07-17T09:03:00;29.8;43.4
43414;DHT22;29013;49.676;8.606;2022-07-17T09:08:28;30.0;43.7
43414;DHT22;29013;49.676;8.606;2022-07-17T09:13:58;30.2;42.7
43414;DHT22;29013;49.676;8.606;2022-07-17T09:19:30;29.9;42.5
43414;DHT22;29013;49.676;8.606;2022-07-17T09:24:52;30.1;42.3
43414;DHT22;29013;49.676;8.606;2022-07-17T09:30:19;30.0;42.4
43414;DHT22;29013;49.676;8.606;2022-07-17T09:35:53;29.8;40.1
43414;DHT22;29013;49.676;8.606;2022-07-17T09:41:19;29.0;39.8
43414;DHT22;29013;49.676;8.606;2022-07-17T09:46:41;28.7;39.4
43414;DHT22;29013;49.676;8.606;2022-07-17T09:52:08;28.9;40.8
43414;DHT22;29013;49.676;8.606;2022-07-17T09:57:40;28.9;41.9
43414;DHT22;29013;49.676;8.606;2022-07-17T10:03:03;28.9;41.4
43414;DHT22;29013;49.676;8.606;2022-07-17T10:08:31;29.3;42.6
43414;DHT22;29013;49.676;8.606;2022-07-17T10:14:00;29.9;41.1
43414;DHT22;29013;49.676;8.606;2022-07-17T10:19:21;30.0;41.2
43414;DHT22;29013;49.676;8.606;2022-07-17T10:24:49;29.8;41.7
43414;DHT22;29013;49.676;8.606;2022-07-17T10:30:18;30.1;39.5
43414;DHT22;29013;49.676;8.606;2022-07-17T10:35:47;30.3;39.3
43414;DHT22;29013;49.676;8.606;2022-07-17T10:41:18;30.5;40.2
43414;DHT22;29013;49.676;8.606;2022-07-17T10:46:40;30.6;40.6
43414;DHT22;29013;49.676;8.606;2022-07-17T10:52:08;30.7;38.5
43414;DHT22;29013;49.676;8.606;2022-07-17T10:57:38;30.7;38.8
43414;DHT22;29013;49.676;8.606;2022-07-17T11:03:12;30.8;40.7
43414;DHT22;29013;49.676;8.606;2022-07-17T11:08:41;30.9;40.8
43414;DHT22;29013;49.676;8.606;2022-07-17T11:14:11;30.6;39.3
43414;DHT22;29013;49.676;8.606;2022-07-17T11:19:36;30.5;39.5
43414;DHT22;29013;49.676;8.606;2022-07-17T11:25:02;30.0;40.6
43414;DHT22;29013;49.676;8.606;2022-07-17T11:30:29;30.3;41.3
43414;DHT22;29013;49.676;8.606;2022-07-17T11:35:57;30.0;39.9
43414;DHT22;29013;49.676;8.606;2022-07-17T11:41:31;29.6;39.6
43414;DHT22;29013;49.676;8.606;2022-07-17T11:46:57;29.5;39.5
43414;DHT22;29013;49.676;8.606;2022-07-17T11:52:22;29.4;40.1
43414;DHT22;29013;49.676;8.606;2022-07-17T11:57:50;29.2;39.4
43414;DHT22;29013;49.676;8.606;2022-07-17T12:03:24;29.0;39.9
43414;DHT22;29013;49.676;8.606;2022-07-17T12:08:49;29.4;39.0
43414;DHT22;29013;49.676;8.606;2022-07-17T12:14:08;29.3;38.8
43414;DHT22;29013;49.676;8.606;2022-07-17T12:19:36;29.2;38.5
43414;DHT22;29013;49.676;8.606;2022-07-17T12:25:01;29.2;38.6
43414;DHT22;29013;49.676;8.606;2022-07-17T12:30:29;29.2;37.9
43414;DHT22;29013;49.676;8.606;2022-07-17T12:35:51;29.4;38.5
43414;DHT22;29013;49.676;8.606;2022-07-17T12:41:13;29.2;37.3
43414;DHT22;29013;49.676;8.606;2022-07-17T12:46:35;29.0;36.9
43414;DHT22;29013;49.676;8.606;2022-07-17T12:51:57;29.1;36.9
43414;DHT22;29013;49.676;8.606;2022-07-17T12:57:19;29.2;36.9
43414;DHT22;29013;49.676;8.606;2022-07-17T13:02:40;29.0;35.6
43414;DHT22;29013;49.676;8.606;2022-07-17T13:08:04;29.0;36.9
43414;DHT22;29013;49.676;8.606;2022-07-17T13:13:26;29.0;36.8
43414;DHT22;29013;49.676;8.606;2022-07-17T13:18:48;29.0;36.1
43414;DHT22;29013;49.676;8.606;2022-07-17T13:24:11;28.8;35.2
43414;DHT22;29013;49.676;8.606;2022-07-17T13:29:39;28.9;33.9
43414;DHT22;29013;49.676;8.606;2022-07-17T13:35:02;28.9;35.7
43414;DHT22;29013;49.676;8.606;2022-07-17T13:40:29;29.0;35.9
43414;DHT22;29013;49.676;8.606;2022-07-17T13:45:57;29.1;34.5
43414;DHT22;29013;49.676;8.606;2022-07-17T13:51:22;29.0;33.8
43414;DHT22;29013;49.676;8.606;2022-07-17T13:56:48;28.7;33.5
43414;DHT22;29013;49.676;8.606;2022-07-17T14:02:10;28.7;33.4
43414;DHT22;29013;49.676;8.606;2022-07-17T14:07:32;28.6;32.7
43414;DHT22;29013;49.676;8.606;2022-07-17T14:12:59;28.6;33.5
43414;DHT22;29013;49.676;8.606;2022-07-17T14:18:26;28.7;30.1
43414;DHT22;29013;49.676;8.606;2022-07-17T14:23:53;28.6;30.5
43414;DHT22;29013;49.676;8.606;2022-07-17T14:29:21;28.5;31.4
43414;DHT22;29013;49.676;8.606;2022-07-17T14:34:49;28.8;31.7
43414;DHT22;29013;49.676;8.606;2022-07-17T14:40:17;28.7;31.6
43414;DHT22;29013;49.676;8.606;2022-07-17T14:45:41;28.7;31.5
43414;DHT22;29013;49.676;8.606;2022-07-17T14:51:09;28.6;32.1
43414;DHT22;29013;49.676;8.606;2022-07-17T14:56:35;28.6;31.6
43414;DHT22;29013;49.676;8.606;2022-07-17T15:02:00;28.6;32.1
43414;DHT22;29013;49.676;8.606;2022-07-17T15:07:26;28.6;32.4
43414;DHT22;29013;49.676;8.606;2022-07-17T15:12:54;28.7;31.9
43414;DHT22;29013;49.676;8.606;2022-07-17T15:18:15;28.6;32.8
43414;DHT22;29013;49.676;8.606;2022-07-17T15:23:40;28.6;33.6
43414;DHT22;29013;49.676;8.606;2022-07-17T15:29:08;28.6;34.0
43414;DHT22;29013;49.676;8.606;2022-07-17T15:34:39;28.7;33.4
43414;DHT22;29013;49.676;8.606;2022-07-17T15:40:09;28.6;33.4
43414;DHT22;29013;49.676;8.606;2022-07-17T15:45:31;28.5;34.0
43414;DHT22;29013;49.676;8.606;2022-07-17T15:50:55;28.6;33.7
43414;DHT22;29013;49.676;8.606;2022-07-17T15:56:20;28.6;33.4
43414;DHT22;29013;49.676;8.606;2022-07-17T16:01:49;28.5;33.3
43414;DHT22;29013;49.676;8.606;2022-07-17T16:07:14;28.7;32.8
43414;DHT22;29013;49.676;8.606;2022-07-17T16:12:42;28.6;32.3
43414;DHT22;29013;49.676;8.606;2022-07-17T16:18:09;28.6;32.5
43414;DHT22;29013;49.676;8.606;2022-07-17T16:23:34;28.6;31.5
43414;DHT22;29013;49.676;8.606;2022-07-17T16:28:57;28.6;32.3
43414;DHT22;29013;49.676;8.606;2022-07-17T16:34:26;28.6;32.5
43414;DHT22;29013;49.676;8.606;2022-07-17T16:39:53;28.6;32.3
43414;DHT22;29013;49.676;8.606;2022-07-17T16:45:18;28.5;32.1
43414;DHT22;29013;49.676;8.606;2022-07-17T16:50:46;28.4;32.7
43414;DHT22;29013;49.676;8.606;2022-07-17T16:56:12;28.3;31.7
43414;DHT22;29013;49.676;8.606;2022-07-17T17:01:38;28.3;32.3
43414;DHT22;29013;49.676;8.606;2022-07-17T17:07:05;28.3;32.3
43414;DHT22;29013;49.676;8.606;2022-07-17T17:12:34;28.3;32.6
43414;DHT22;29013;49.676;8.606;2022-07-17T17:17:59;28.2;32.6
43414;DHT22;29013;49.676;8.606;2022-07-17T17:23:23;28.2;33.1
43414;DHT22;29013;49.676;8.606;2022-07-17T17:28:52;28.1;32.9
43414;DHT22;29013;49.676;8.606;2022-07-17T17:34:20;28.1;32.2
43414;DHT22;29013;49.676;8.606;2022-07-17T17:39:45;27.9;32.2
43414;DHT22;29013;49.676;8.606;2022-07-17T17:45:13;27.9;33.0
43414;DHT22;29013;49.676;8.606;2022-07-17T17:50:41;27.8;32.4
43414;DHT22;29013;49.676;8.606;2022-07-17T17:56:07;27.7;32.5
43414;DHT22;29013;49.676;8.606;2022-07-17T18:01:32;27.7;33.0
43414;DHT22;29013;49.676;8.606;2022-07-17T18:06:57;27.7;33.3
43414;DHT22;29013;49.676;8.606;2022-07-17T18:12:21;27.5;33.0
43414;DHT22;29013;49.676;8.606;2022-07-17T18:17:43;27.6;33.6
43414;DHT22;29013;49.676;8.606;2022-07-17T18:23:04;27.5;33.6
43414;DHT22;29013;49.676;8.606;2022-07-17T18:28:27;27.4;34.4
43414;DHT22;29013;49.676;8.606;2022-07-17T18:33:51;27.2;36.6
43414;DHT22;29013;49.676;8.606;2022-07-17T18:39:17;27.0;35.4
43414;DHT22;29013;49.676;8.606;2022-07-17T18:44:42;27.0;34.7
43414;DHT22;29013;49.676;8.606;2022-07-17T18:50:10;26.9;35.3
43414;DHT22;29013;49.676;8.606;2022-07-17T18:55:37;26.9;35.3
43414;DHT22;29013;49.676;8.606;2022-07-17T19:01:02;26.7;34.2
43414;DHT22;29013;49.676;8.606;2022-07-17T19:06:29;26.5;34.6
43414;DHT22;29013;49.676;8.606;2022-07-17T19:11:56;26.5;35.9
43414;DHT22;29013;49.676;8.606;2022-07-17T19:17:23;26.3;35.7
43414;DHT22;29013;49.676;8.606;2022-07-17T19:22:50;26.2;36.3
43414;DHT22;29013;49.676;8.606;2022-07-17T19:28:16;26.1;37.1
43414;DHT22;29013;49.676;8.606;2022-07-17T19:33:43;25.9;37.4
43414;DHT22;29013;49.676;8.606;2022-07-17T19:39:08;25.7;38.2
43414;DHT22;29013;49.676;8.606;2022-07-17T19:44:34;25.6;38.9
43414;DHT22;29013;49.676;8.606;2022-07-17T19:49:59;25.3;40.4
43414;DHT22;29013;49.676;8.606;2022-07-17T19:55:27;25.1;40.3
43414;DHT22;29013;49.676;8.606;2022-07-17T20:00:54;25.0;39.8
43414;DHT22;29013;49.676;8.606;2022-07-17T20:06:21;24.8;40.7
43414;DHT22;29013;49.676;8.606;2022-07-17T20:11:47;24.6;40.6
43414;DHT22;29013;49.676;8.606;2022-07-17T20:17:12;24.4;41.1
43414;DHT22;29013;49.676;8.606;2022-07-17T20:22:40;24.3;40.9
43414;DHT22;29013;49.676;8.606;2022-07-17T20:28:06;24.1;41.6
43414;DHT22;29013;49.676;8.606;2022-07-17T20:33:34;24.0;41.9
43414;DHT22;29013;49.676;8.606;2022-07-17T20:39:01;23.9;41.5
43414;DHT22;29013;49.676;8.606;2022-07-17T20:44:29;23.8;41.2
43414;DHT22;29013;49.676;8.606;2022-07-17T20:49:57;23.6;41.4
43414;DHT22;29013;49.676;8.606;2022-07-17T20:55:24;23.5;41.8
43414;DHT22;29013;49.676;8.606;2022-07-17T21:00:53;23.3;41.8
43414;DHT22;29013;49.676;8.606;2022-07-17T21:06:14;23.1;42.5
43414;DHT22;29013;49.676;8.606;2022-07-17T21:11:36;23.0;42.2
43414;DHT22;29013;49.676;8.606;2022-07-17T21:17:03;23.0;42.4
43414;DHT22;29013;49.676;8.606;2022-07-17T21:22:30;22.8;42.6
43414;DHT22;29013;49.676;8.606;2022-07-17T21:27:57;22.7;42.6
43414;DHT22;29013;49.676;8.606;2022-07-17T21:33:24;22.7;43.1
43414;DHT22;29013;49.676;8.606;2022-07-17T21:38:51;22.5;43.0
43414;DHT22;29013;49.676;8.606;2022-07-17T21:44:16;22.6;43.1
43414;DHT22;29013;49.676;8.606;2022-07-17T21:49:43;22.5;43.4
43414;DHT22;29013;49.676;8.606;2022-07-17T21:55:12;22.4;43.6
43414;DHT22;29013;49.676;8.606;2022-07-17T22:00:33;22.4;45.0
43414;DHT22;29013;49.676;8.606;2022-07-17T22:06:00;22.2;45.4
43414;DHT22;29013;49.676;8.606;2022-07-17T22:11:30;22.1;45.9
43414;DHT22;29013;49.676;8.606;2022-07-17T22:16:57;21.9;46.8
43414;DHT22;29013;49.676;8.606;2022-07-17T22:22:21;21.7;47.3
43414;DHT22;29013;49.676;8.606;2022-07-17T22:27:49;21.6;46.1
43414;DHT22;29013;49.676;8.606;2022-07-17T22:33:15;21.8;44.6
43414;DHT22;29013;49.676;8.606;2022-07-17T22:38:44;21.8;44.5
43414;DHT22;29013;49.676;8.606;2022-07-17T22:44:12;21.9;44.3
43414;DHT22;29013;49.676;8.606;2022-07-17T22:49:39;21.9;44.5
43414;DHT22;29013;49.676;8.606;2022-07-17T22:55:09;21.8;44.7
43414;DHT22;29013;49.676;8.606;2022-07-17T23:00:37;21.8;45.1
43414;DHT22;29013;49.676;8.606;2022-07-17T23:06:04;21.8;44.7
43414;DHT22;29013;49.676;8.606;2022-07-17T23:11:30;21.7;45.1
43414;DHT22;29013;49.676;8.606;2022-07-17T23:16:57;21.6;45.2
43414;DHT22;29013;49.676;8.606;2022-07-17T23:22:25;21.6;45.5
43414;DHT22;29013;49.676;8.606;2022-07-17T23:27:49;21.4;45.7
43414;DHT22;29013;49.676;8.606;2022-07-17T23:33:18;21.4;45.6
43414;DHT22;29013;49.676;8.606;2022-07-17T23:38:44;21.4;46.9
43414;DHT22;29013;49.676;8.606;2022-07-17T23:44:12;21.1;48.4
43414;DHT22;29013;49.676;8.606;2022-07-17T23:49:37;21.0;48.4
43414;DHT22;29013;49.676;8.606;2022-07-17T23:55:08;20.9;48.6
